This is the latest recevied weather packets stored in our database for station/object JH1CWL-13. If no packets are shown the sender has not sent any weather packets the latest 10 day(s).
| Time | Temp. | Humidity | Pressure | Rain* | Wind** | Luminosity | Snow |
|---|---|---|---|---|---|---|---|
| 1777786524 | 22.22° C | 77% | 1006.5 hPa | 0 mm | - | - | - |
| 1777785326 | 22.78° C | 74% | 1006.7 hPa | 0 mm | - | - | - |
| 1777784126 | 23.33° C | 71% | 1007 hPa | 0 mm | - | - | - |
| 1777782926 | 23.89° C | 66% | 1007.1 hPa | 0 mm | - | - | - |
| 1777781724 | 23.33° C | 64% | 1007.7 hPa | 0 mm | - | - | - |
| 1777780525 | 22.78° C | 57% | 1007.8 hPa | 0 mm | - | - | - |
| 1777779326 | 23.33° C | 54% | 1007.9 hPa | 0 mm | - | - | - |
| 1777778124 | 23.33° C | 50% | 1008.5 hPa | 0 mm | - | - | - |
| 1777776926 | 23.89° C | 45% | 1008.5 hPa | 0 mm | - | - | - |
| 1777775725 | 22.78° C | 50% | 1008.7 hPa | 0 mm | - | - | - |
| 1777774525 | 22.78° C | 48% | 1009 hPa | 0 mm | - | - | - |
| 1777773324 | 22.22° C | 51% | 1009.1 hPa | 0 mm | - | - | - |
| 1777772125 | 21.11° C | 53% | 1009.6 hPa | 0 mm | - | - | - |
| 1777770925 | 21.67° C | 54% | 1009.5 hPa | 0 mm | - | - | - |
| 1777769724 | 21.67° C | 58% | 1010 hPa | 0 mm | - | - | - |
| 1777768526 | 21.67° C | 56% | 1010 hPa | 0 mm | - | - | - |
| 1777767325 | 22.22° C | 53% | 1010 hPa | 0 mm | - | - | - |
| 1777766125 | 22.22° C | 53% | 1009.6 hPa | 0 mm | - | - | - |
| 1777764925 | 21.11° C | 53% | 1010.1 hPa | 0 mm | - | - | - |
| 1777763725 | 20.56° C | 54% | 1009.9 hPa | 0 mm | - | - | - |
| 1777762524 | 20° C | 61% | 1009.6 hPa | 0 mm | - | - | - |
| 1777761325 | 18.89° C | 62% | 1009.7 hPa | 0 mm | - | - | - |
| 1777760125 | 18.33° C | 63% | 1009.8 hPa | 0 mm | - | - | - |
| 1777758926 | 18.89° C | 62% | 1009.8 hPa | 0 mm | - | - | - |
| 1777757724 | 18.33° C | 62% | 1010.1 hPa | 0 mm | - | - | - |
* Rain latest hour (hover to see other rain measurements)
** Current wind speed in m/s (hover to see current wind gust speed)